»·PEaware :: N9426N KLLR-O60

N9426N :: KLLR-O60

FLIGHT INFORMATION

Flight Status: Arrived
Operator: Privately registered:
United States
More flights under this callsign
Pilot: Tony A. (18989)
Aircraft: PIPER PA-28R-201 ARROW
(P28R)
More flights by this aircraft type
Origin: KLLR
Destination: O60 Cloverdale Mun
United States
More flights between these airports :: More routes between these airports
Route: DIRECT
File this flight plan on PilotEdge
Remarks: cat -01
Altitude:
(Current/Filed)
7,500ft
Speed:
(Current/Filed)
125kts
Departed: 07-May-18 03:09 PM
Arrived: 07-May-18 03:40 PM
Distance/Time
Traveled:
Not Available
Distance/Time
To Go:
Arrived

Flight Plot

Page will automatically refresh every two minutes.

Flight plan parsing failed; only flown route is shown


Map Options




Map Legend


Flown Route
Filed Route
Departure Airport
Arrival Airport
Navaid (VOR, NDB)
Fix

Horizontal Profiles

Position Reports

Time Latitude Longitude Heading Altitude Ground
Speed
07-May-18 15:03 39.263077 -123.752541 359 555ft 0kts
07-May-18 15:04 39.263077 -123.752541 359 555ft 0kts
07-May-18 15:05 39.263077 -123.752541 0 555ft 0kts
07-May-18 15:06 39.262652 -123.752433 158 555ft 3kts
07-May-18 15:07 39.260848 -123.749727 129 561ft 16kts
07-May-18 15:08 39.257737 -123.746049 233 566ft 0kts
07-May-18 15:09 39.264347 -123.757085 312 792ft 88kts
07-May-18 15:10 39.268994 -123.779457 185 1952ft 89kts
07-May-18 15:11 39.250354 -123.761270 113 2855ft 87kts
07-May-18 15:12 39.238634 -123.732723 122 3655ft 93kts
07-May-18 15:13 39.224545 -123.704659 120 4445ft 94kts
07-May-18 15:14 39.208584 -123.677462 130 5201ft 97kts
07-May-18 15:15 39.187547 -123.655497 142 5941ft 99kts
07-May-18 15:16 39.167308 -123.631217 128 6688ft 100kts
07-May-18 15:17 39.152997 -123.600254 119 7387ft 102kts
07-May-18 15:18 39.129763 -123.572176 140 7469ft 134kts
07-May-18 15:19 39.100558 -123.541379 143 7441ft 138kts
07-May-18 15:20 39.070719 -123.511448 134 7580ft 136kts
07-May-18 15:21 39.046205 -123.472766 124 7608ft 140kts
07-May-18 15:22 39.023361 -123.431071 123 7569ft 143kts
07-May-18 15:23 39.000479 -123.388507 123 7456ft 144kts
07-May-18 15:24 38.978426 -123.347543 120 7431ft 143kts
07-May-18 15:25 38.956131 -123.307229 130 7537ft 139kts
07-May-18 15:26 38.929851 -123.271114 130 7671ft 138kts
07-May-18 15:27 38.909296 -123.228099 111 7522ft 148kts
07-May-18 15:27 38.896910 -123.189129 110 7453ft 144kts
07-May-18 15:28 38.879755 -123.143088 126 6890ft 144kts
07-May-18 15:29 38.847030 -123.113550 152 5953ft 148kts
07-May-18 15:30 38.810269 -123.091146 155 4987ft 144kts
07-May-18 15:31 38.779201 -123.059209 138 4076ft 143kts
07-May-18 15:32 38.751453 -123.024077 113 3174ft 147kts
07-May-18 15:33 38.773935 -122.984747 67 2219ft 145kts
07-May-18 15:34 38.766556 -122.943653 114 2380ft 116kts
07-May-18 15:36 38.759385 -122.952817 312 1426ft 95kts
07-May-18 15:36 38.775902 -122.969437 318 1163ft 88kts
07-May-18 15:37 38.795563 -122.986614 310 1119ft 79kts
07-May-18 15:38 38.788090 -123.000255 154 643ft 69kts
07-May-18 15:39 38.775320 -122.991949 165 265ft 13kts
07-May-18 15:40 38.774585 -122.992785 238 270ft 0kts
07-May-18 15:41 38.774585 -122.992785 238 270ft 0kts
07-May-18 15:42 38.774585 -122.992785 238 270ft 0kts
07-May-18 15:43 38.774585 -122.992785 238 270ft 0kts
07-May-18 15:44 38.774585 -122.992785 238 270ft 0kts
07-May-18 15:45 38.774585 -122.992785 238 270ft 0kts
07-May-18 15:47 38.774585 -122.992785 238 270ft 0kts
07-May-18 15:48 38.774585 -122.992785 238 270ft 0kts
07-May-18 15:49 38.774585 -122.992785 238 270ft 0kts
07-May-18 15:50 38.774585 -122.992785 238 270ft 0kts
07-May-18 15:51 38.774585 -122.992785 238 270ft 0kts
07-May-18 15:52 38.774585 -122.992785 238 270ft 0kts
07-May-18 15:53 38.774585 -122.992785 238 270ft 0kts
07-May-18 15:54 38.774585 -122.992785 238 270ft 0kts

Navigation Log

Ident Type
Flight plan parsing failed, navigation log unavailable